PADK Airport Information

Runway Information
Runway 05 Length 7790 ft width 200 ft Elevation 17 ft Threshold N/A Heading 61
Runway 23 Length 7790 ft Width 200 ft Elevation 15 ft Threshold N/A Heading 241
Runway 18 Length 7605 ft width 200 ft Elevation 6 ft Threshold N/A Heading 185
Runway 36 Length 7605 ft Width 200 ft Elevation 4 ft Threshold N/A Heading 5
Airport Frequencies
Type A Name ANCHORAGE Frequency 126400 MHZ
Type AWOS Name Frequency 134500 MHZ
Type D Name ANCHORAGE Frequency 126400 MHZ
Type CTAF Name ADAK Frequency 122900 MHZ
Type AWOS Name PADK Frequency 134500 MHZ
Type CTR Name ANCHORAGE Frequency 126400 MHZ
Type MC Name ADAK Frequency 122900 MHZ
Airport Navaids
Type NDB-DME Name Mount Moffett Frequency 530 KHZ
Type TACAN Name Adak Frequency 113000 KHZ
Airport Weather Information & NOTAM
METAR for:PADK (Adak (NAS), AK, US)
Text:PADK 141056Z AUTO 17010KT 10SM FEW026 OVC034 03/M01 A3034 RMK AO2 SLP274 T00331011 $
Conditions at:1056 UTC 14 Apr 2024
Temperature: 3.3°C ( 38°F)
Dewpoint: -1.1°C ( 30°F) [RH = 73%]
Pressure (altimeter):30.34 inches Hg (1027.5 mb) [Sea level pressure: 1027.4 mb]
Winds:from the S (170 degrees) at 12 MPH (10 knots; 5.1 m/s)
Visibility:10 or more sm (16+ km)
Ceiling:3400 feet AGL
Clouds:few clouds at 2600 feet AGL, overcast cloud deck at 3400 feet AGL
QC Flag:automated observation with no human augmentation; SOME DATA ABOVE MAY BE INACCURATE!!!"$" is an indication the sensor requires maintenance.